Siletz, OR

10:46 AM PST on November 28, 2014 (GMT -0800)
Siletz | Change Station
CLOSE
Current Station
Personal Weather Station
Location: Siletz, OR
Elevation: 256 ft
Nearby Weather Stations
Active Advisory: Special Statement Active Notice: Record Report

Elev 256 ft 44.73 °N, 123.91 °W | Updated 11 seconds ago

Overcast
Overcast
55.2 °F
Feels Like 55.2 °F
N
2.9
Wind Variable Wind from SSW
Gusts 3.4 mph

Today
High -- | Low -- °F
--% Chance of Precip.
Yesterday
High -- | Low -- °F
Precip. -- in
7:29 AM 4:37 PM
Waxing Crescent, 43% visible
Pressure 29.64 in
Visibility 3.0 miles
Clouds Overcast 900 ft
Dew Point 53 °F
Humidity 93%
Rainfall 0.28 in
Snow Depth Not available.
UV 0 out of 12
Pollen .30 out of 12
Air Quality Not available.
Flu Activity Not available.
METAR KONP 281835Z AUTO 19019G22KT 3SM RA OVC009 12/12 A2964 RMK AO2

More Conditions Fewer Conditions

Pressure 29.64 in
Visibility 3.0 miles
Clouds Overcast 900 ft
Dew Point 53 °F
Humidity 93%
Rainfall 0.28 in
Snow Depth Not available.
UV 0 out of 12
Pollen .30 out of 12
Air Quality Not available.
Flu Activity Not available.
METAR KONP 281835Z AUTO 19019G22KT 3SM RA OVC009 12/12 A2964 RMK AO2

More Conditions Fewer Conditions

10-Day Weather Forecast

Almanac

Astronomy

Nov. 28, 2014 Rise Set
Actual Time
Civil Twilight
Nautical Twilight
Astronomical Twilight
Moon
Length of Visible Light
Length of Day
Tomorrow will be .
, % of the Moon is Illuminated

Today's Extremes

State Highs State Lows

Community

WunderPhotos

Upload Photos

1,774,257 photos uploaded!

WunderBlogs® & News

Nearby

Air Quality

  Air Quality AQ Index Pollutant
Not available.

Snow Depth

Station Depth Elevation

Earthquake Activity

City Distance Mag. Time & Date
Minimum magnitude displayed is 2.5.

Coastal Water Temperatures

Place Temperature

Nearby Weather Stations